createdAt,value
2022-09-22T00:01:12.619Z,99367.31
2022-09-22T00:02:14.455Z,99375.63
2022-09-22T00:03:16.213Z,99378.44
2022-09-22T00:04:17.986Z,99368.88
2022-09-22T00:05:23.930Z,99375.34
2022-09-22T00:06:29.819Z,99368.59
2022-09-22T00:07:31.525Z,99369.78
2022-09-22T00:08:37.153Z,99366.34
2022-09-22T00:09:38.891Z,99373.44
2022-09-22T00:10:40.669Z,99368.34
2022-09-22T00:11:47.344Z,99372.00
2022-09-22T00:12:50.182Z,99374.78
2022-09-22T00:14:00.464Z,99371.50
2022-09-22T00:15:02.985Z,99373.50
2022-09-22T00:16:09.917Z,99366.56
2022-09-22T00:17:12.194Z,99364.94
2022-09-22T00:18:13.911Z,99356.38
2022-09-22T00:19:23.057Z,99356.38
2022-09-22T00:20:24.731Z,99360.84
2022-09-22T00:21:27.922Z,99357.19
2022-09-22T00:22:29.893Z,99360.03
2022-09-22T00:23:32.935Z,99354.88
2022-09-22T00:24:34.871Z,99354.72
2022-09-22T00:25:40.208Z,99356.19
2022-09-22T00:26:42.036Z,99354.34
2022-09-22T00:27:44.656Z,99351.91
2022-09-22T00:28:48.160Z,99358.00
2022-09-22T00:29:51.525Z,99355.56
2022-09-22T00:30:53.261Z,99364.50
2022-09-22T00:31:56.107Z,99359.34
2022-09-22T00:32:57.947Z,99365.84
2022-09-22T00:33:59.698Z,99365.00
2022-09-22T00:35:01.583Z,99367.84
2022-09-22T00:36:04.765Z,99363.38
2022-09-22T00:37:06.500Z,99362.56
2022-09-22T00:38:08.763Z,99360.91
2022-09-22T00:39:11.377Z,99364.56
2022-09-22T00:40:13.141Z,99359.47
2022-09-22T00:41:21.180Z,99360.28
2022-09-22T00:42:23.622Z,99360.63
2022-09-22T00:43:28.610Z,99360.63
2022-09-22T00:44:37.302Z,99366.72
2022-09-22T00:45:39.078Z,99365.91
2022-09-22T00:46:44.733Z,99365.28
2022-09-22T00:47:48.036Z,99371.56
2022-09-22T00:49:05.431Z,99371.56
2022-09-22T00:50:23.648Z,99363.00
2022-09-22T00:51:34.673Z,99367.03
2022-09-22T00:52:50.766Z,99361.06
2022-09-22T00:53:56.021Z,99357.81
2022-09-22T00:55:04.598Z,99353.53
2022-09-22T00:56:15.899Z,99357.97
2022-09-22T00:57:23.924Z,99351.25
2022-09-22T00:58:37.515Z,99353.91
2022-09-22T00:59:42.791Z,99348.97
2022-09-22T01:00:45.299Z,99355.91
2022-09-22T01:01:47.553Z,99355.22
2022-09-22T01:02:56.951Z,99355.91
2022-09-22T01:03:58.838Z,99358.72
2022-09-22T01:05:00.924Z,99360.50
2022-09-22T01:06:07.428Z,99361.38
2022-09-22T01:07:12.459Z,99349.13
2022-09-22T01:08:17.041Z,99350.94
2022-09-22T01:09:18.794Z,99355.41
2022-09-22T01:10:21.185Z,99358.25
2022-09-22T01:11:25.189Z,99358.25
2022-09-22T01:12:29.502Z,99352.31
2022-09-22T01:14:01.223Z,99353.97
2022-09-22T01:15:20.442Z,99350.88
2022-09-22T01:16:28.074Z,99360.63
2022-09-22T01:17:41.963Z,99355.66
2022-09-22T01:19:01.718Z,99355.66
2022-09-22T01:20:41.085Z,99360.94
2022-09-22T01:22:04.380Z,99356.22
2022-09-22T01:23:53.099Z,99357.03
2022-09-22T01:25:36.658Z,99350.31
2022-09-22T01:26:44.336Z,99349.00
2022-09-22T01:28:22.610Z,99339.63
2022-09-22T01:29:53.405Z,99352.81
2022-09-22T01:31:19.291Z,99350.56
2022-09-22T01:32:38.503Z,99351.56
2022-09-22T01:34:25.685Z,99351.56
2022-09-22T01:35:48.975Z,99348.47
2022-09-22T01:37:34.548Z,99346.78
2022-09-22T01:39:04.826Z,99347.16
2022-09-22T01:40:25.655Z,99346.34
2022-09-22T01:41:48.001Z,99351.97
2022-09-22T01:43:02.779Z,99343.44
2022-09-22T01:44:16.544Z,99348.03
2022-09-22T01:45:26.067Z,99346.41
2022-09-22T01:46:37.241Z,99349.22
2022-09-22T01:47:47.315Z,99346.59
2022-09-22T01:48:52.480Z,99347.75
2022-09-22T01:50:03.306Z,99340.03
2022-09-22T01:51:18.186Z,99346.50
2022-09-22T01:52:28.580Z,99349.28
2022-09-22T01:53:39.497Z,99347.81
2022-09-22T01:54:50.019Z,99348.00
2022-09-22T01:55:58.988Z,99348.19
2022-09-22T01:57:23.458Z,99345.53
2022-09-22T01:58:36.803Z,99344.91
2022-09-22T01:59:43.335Z,99348.72
2022-09-22T02:00:54.641Z,99348.88
2022-09-22T02:02:23.812Z,99339.31
2022-09-22T02:04:00.131Z,99343.78
2022-09-22T02:05:11.133Z,99343.13
2022-09-22T02:06:20.381Z,99340.69
2022-09-22T02:07:33.761Z,99345.31
2022-09-22T02:08:48.239Z,99341.03
2022-09-22T02:09:51.199Z,99347.28
2022-09-22T02:10:58.764Z,99341.34
2022-09-22T02:12:01.341Z,99343.97
2022-09-22T02:13:03.482Z,99338.06
2022-09-22T02:14:06.783Z,99337.25
2022-09-22T02:15:32.796Z,99338.69
2022-09-22T02:16:36.026Z,99337.06
2022-09-22T02:17:39.049Z,99340.50
2022-09-22T02:19:13.476Z,99337.06
2022-09-22T02:20:15.768Z,99341.50
2022-09-22T02:21:19.384Z,99340.88
2022-09-22T02:22:21.441Z,99331.31
2022-09-22T02:23:23.167Z,99336.59
2022-09-22T02:24:39.800Z,99330.31
2022-09-22T02:25:43.473Z,99329.69
2022-09-22T02:26:45.239Z,99334.31
2022-09-22T02:27:48.363Z,99332.84
2022-09-22T02:29:01.789Z,99332.84
2022-09-22T02:30:11.949Z,99325.91
2022-09-22T02:31:20.398Z,99326.28
2022-09-22T02:32:24.433Z,99332.56
2022-09-22T02:33:28.796Z,99329.28
2022-09-22T02:34:31.783Z,99334.88
2022-09-22T02:35:39.123Z,99337.50
2022-09-22T02:36:55.530Z,99327.97
2022-09-22T02:38:13.230Z,99325.31
2022-09-22T02:39:43.413Z,99332.59
2022-09-22T02:41:14.824Z,99318.47
2022-09-22T02:42:39.405Z,99327.22
2022-09-22T02:43:54.574Z,99323.91
2022-09-22T02:45:18.330Z,99326.91
2022-09-22T02:46:40.046Z,99325.44
2022-09-22T02:47:58.129Z,99328.44
2022-09-22T02:49:10.062Z,99320.19
2022-09-22T02:50:17.136Z,99324.66
2022-09-22T02:51:19.383Z,99317.91
2022-09-22T02:52:24.846Z,99324.81
2022-09-22T02:53:26.599Z,99322.19
2022-09-22T02:54:28.274Z,99326.81
2022-09-22T02:55:30.071Z,99328.47
2022-09-22T02:56:32.661Z,99325.00
2022-09-22T02:57:34.535Z,99328.47
2022-09-22T02:58:36.760Z,99327.81
2022-09-22T02:59:38.460Z,99330.47
2022-09-22T03:00:40.235Z,99322.72
2022-09-22T03:01:42.009Z,99319.09
2022-09-22T03:02:43.750Z,99323.53
2022-09-22T03:03:45.491Z,99323.53
2022-09-22T03:04:47.263Z,99323.53
2022-09-22T03:05:49.027Z,99325.38
2022-09-22T03:06:50.734Z,99321.72
2022-09-22T03:07:52.540Z,99315.78
2022-09-22T03:08:54.522Z,99328.81
2022-09-22T03:09:56.217Z,99322.72
2022-09-22T03:10:57.961Z,99324.50
2022-09-22T03:12:00.098Z,99315.78
2022-09-22T03:13:15.988Z,99322.06
2022-09-22T03:14:18.500Z,99321.22
2022-09-22T03:15:23.770Z,99319.41
2022-09-22T03:16:28.248Z,99317.94
2022-09-22T03:17:32.055Z,99318.94
2022-09-22T03:18:33.826Z,99316.31
2022-09-22T03:19:35.619Z,99318.13
2022-09-22T03:20:37.440Z,99317.66
2022-09-22T03:21:39.355Z,99316.84
2022-09-22T03:22:41.726Z,99322.94
2022-09-22T03:23:43.614Z,99320.44
2022-09-22T03:24:45.338Z,99315.16
2022-09-22T03:25:47.029Z,99316.16
2022-09-22T03:26:48.813Z,99319.97
2022-09-22T03:27:50.561Z,99319.34
2022-09-22T03:28:53.314Z,99321.31
2022-09-22T03:29:57.536Z,99315.22
2022-09-22T03:30:59.294Z,99318.69
2022-09-22T03:32:01.219Z,99316.41
2022-09-22T03:33:03.121Z,99313.78
2022-09-22T03:34:04.827Z,99311.28
2022-09-22T03:35:07.886Z,99314.09
2022-09-22T03:36:09.617Z,99317.72
2022-09-22T03:37:11.323Z,99312.63
2022-09-22T03:38:13.109Z,99319.72
2022-09-22T03:39:15.920Z,99317.72
2022-09-22T03:40:17.699Z,99319.72
2022-09-22T03:41:20.270Z,99318.06
2022-09-22T03:42:21.987Z,99310.34
2022-09-22T03:43:23.739Z,99315.78
2022-09-22T03:44:26.497Z,99322.88
2022-09-22T03:45:28.205Z,99317.75
2022-09-22T03:46:30.900Z,99314.28
2022-09-22T03:47:32.703Z,99316.28
2022-09-22T03:48:34.444Z,99313.81
2022-09-22T03:49:36.298Z,99317.44
2022-09-22T03:50:38.064Z,99310.53
2022-09-22T03:51:40.192Z,99314.16
2022-09-22T03:52:43.738Z,99316.81
2022-09-22T03:53:46.321Z,99310.88
2022-09-22T03:54:48.150Z,99319.94
2022-09-22T03:55:49.910Z,99324.19
2022-09-22T03:56:51.620Z,99313.66
2022-09-22T03:57:53.361Z,99309.41
2022-09-22T03:58:55.093Z,99312.84
2022-09-22T03:59:56.792Z,99310.22
2022-09-22T04:00:58.529Z,99309.41
2022-09-22T04:02:02.088Z,99307.75
2022-09-22T04:03:04.006Z,99306.94
2022-09-22T04:04:06.232Z,99311.72
2022-09-22T04:05:09.158Z,99310.09
2022-09-22T04:06:11.252Z,99312.91
2022-09-22T04:07:12.959Z,99306.81
2022-09-22T04:08:14.702Z,99303.50
2022-09-22T04:09:18.309Z,99304.50
2022-09-22T04:10:20.765Z,99308.13
2022-09-22T04:11:24.275Z,99308.94
2022-09-22T04:12:25.974Z,99298.41
2022-09-22T04:13:27.959Z,99301.03
2022-09-22T04:14:29.927Z,99308.13
2022-09-22T04:15:31.623Z,99300.22
2022-09-22T04:16:33.455Z,99304.66
2022-09-22T04:17:36.910Z,99310.75
2022-09-22T04:18:40.077Z,99304.03
2022-09-22T04:19:41.795Z,99304.03
2022-09-22T04:20:44.357Z,99305.84
2022-09-22T04:21:46.173Z,99303.38
2022-09-22T04:22:47.920Z,99299.75
2022-09-22T04:23:49.672Z,99301.56
2022-09-22T04:24:51.458Z,99300.91
2022-09-22T04:25:54.091Z,99304.38
2022-09-22T04:27:18.465Z,99302.72
2022-09-22T04:28:18.018Z,99305.69
2022-09-22T04:29:19.758Z,99304.03
2022-09-22T04:30:21.484Z,99296.44
2022-09-22T04:31:23.218Z,99299.25
2022-09-22T04:32:24.971Z,99301.88
2022-09-22T04:33:26.718Z,99302.19
2022-09-22T04:34:28.488Z,99310.09
2022-09-22T04:35:30.446Z,99300.41
2022-09-22T04:36:32.165Z,99301.56
2022-09-22T04:37:33.909Z,99300.91
2022-09-22T04:38:35.647Z,99307.97
2022-09-22T04:39:37.716Z,99309.97
2022-09-22T04:40:39.445Z,99309.81
2022-09-22T04:41:41.196Z,99309.81
2022-09-22T04:42:46.594Z,99301.91
2022-09-22T04:43:48.372Z,99310.63
2022-09-22T04:44:50.151Z,99308.97
2022-09-22T04:45:51.879Z,99309.16
2022-09-22T04:46:53.713Z,99311.78
2022-09-22T04:47:55.756Z,99306.53
2022-09-22T04:48:57.543Z,99308.34
2022-09-22T04:49:59.992Z,99310.13
2022-09-22T04:51:01.698Z,99305.69
2022-09-22T04:52:04.176Z,99310.97
2022-09-22T04:53:06.912Z,99304.06
2022-09-22T04:54:08.641Z,99307.50
2022-09-22T04:55:11.218Z,99308.69
2022-09-22T04:56:12.991Z,99309.63
2022-09-22T04:57:18.394Z,99308.00
2022-09-22T04:58:22.151Z,99316.88
2022-09-22T04:59:24.097Z,99316.22
2022-09-22T05:00:28.699Z,99314.41
2022-09-22T05:01:30.583Z,99312.78
2022-09-22T05:02:34.463Z,99314.41
2022-09-22T05:03:38.151Z,99313.94
2022-09-22T05:04:39.942Z,99304.41
2022-09-22T05:05:41.785Z,99311.47
2022-09-22T05:06:43.664Z,99310.66
2022-09-22T05:07:48.911Z,99319.53
2022-09-22T05:08:50.641Z,99309.00
2022-09-22T05:09:52.372Z,99308.03
2022-09-22T05:10:55.455Z,99314.25
2022-09-22T05:11:59.480Z,99304.72
2022-09-22T05:13:01.270Z,99303.41
2022-09-22T05:14:03.042Z,99309.69
2022-09-22T05:15:05.431Z,99304.41
2022-09-22T05:16:08.694Z,99308.03
2022-09-22T05:17:10.476Z,99306.41
2022-09-22T05:18:12.213Z,99302.94
2022-09-22T05:19:14.085Z,99305.75
2022-09-22T05:20:16.531Z,99310.16
2022-09-22T05:21:18.862Z,99309.34
2022-09-22T05:22:22.763Z,99311.97
2022-09-22T05:23:24.532Z,99311.31
2022-09-22T05:24:26.237Z,99313.78
2022-09-22T05:25:28.044Z,99314.59
2022-09-22T05:26:30.897Z,99316.28
2022-09-22T05:27:32.756Z,99321.53
2022-09-22T05:28:34.762Z,99322.34
2022-09-22T05:29:36.461Z,99324.81
2022-09-22T05:30:38.168Z,99327.63
2022-09-22T05:31:39.959Z,99324.97
2022-09-22T05:32:47.050Z,99329.44
2022-09-22T05:33:49.013Z,99327.75
2022-09-22T05:34:50.741Z,99326.94
2022-09-22T05:35:52.438Z,99329.72
2022-09-22T05:36:54.168Z,99327.09
2022-09-22T05:37:55.978Z,99332.19
2022-09-22T05:38:57.851Z,99332.38
2022-09-22T05:39:59.636Z,99334.00
2022-09-22T05:41:02.851Z,99329.56
2022-09-22T05:42:08.889Z,99329.56
2022-09-22T05:43:13.375Z,99332.06
2022-09-22T05:44:15.891Z,99327.63
2022-09-22T05:45:19.474Z,99332.06
2022-09-22T05:46:21.281Z,99333.69
2022-09-22T05:47:23.178Z,99329.25
2022-09-22T05:48:28.920Z,99332.72
2022-09-22T05:49:32.880Z,99333.03
2022-09-22T05:50:34.571Z,99326.94
2022-09-22T05:51:36.298Z,99332.38
2022-09-22T05:52:38.680Z,99323.47
2022-09-22T05:53:40.487Z,99327.09
2022-09-22T05:54:42.872Z,99324.47
2022-09-22T05:55:44.621Z,99321.84
2022-09-22T05:56:46.514Z,99324.63
2022-09-22T05:57:48.310Z,99321.03
2022-09-22T05:58:50.063Z,99325.63
2022-09-22T05:59:52.140Z,99327.28
2022-09-22T06:00:57.942Z,99331.72
2022-09-22T06:02:00.461Z,99323.81
2022-09-22T06:03:03.664Z,99330.72
2022-09-22T06:04:05.593Z,99330.72
2022-09-22T06:05:07.736Z,99322.19
2022-09-22T06:06:09.492Z,99330.72
2022-09-22T06:07:11.225Z,99329.91
2022-09-22T06:08:12.933Z,99335.00
2022-09-22T06:09:14.647Z,99327.09
2022-09-22T06:10:16.530Z,99327.09
2022-09-22T06:11:18.272Z,99322.50
2022-09-22T06:12:20.278Z,99323.47
2022-09-22T06:13:22.003Z,99319.84
2022-09-22T06:14:23.703Z,99323.47
2022-09-22T06:15:25.989Z,99329.44
2022-09-22T06:16:27.818Z,99329.44
2022-09-22T06:17:29.573Z,99325.94
2022-09-22T06:18:31.388Z,99319.72
2022-09-22T06:19:33.827Z,99321.38
2022-09-22T06:20:36.093Z,99319.72
2022-09-22T06:21:38.455Z,99331.06
2022-09-22T06:22:40.151Z,99329.09
2022-09-22T06:23:43.069Z,99328.91
2022-09-22T06:24:45.040Z,99331.53
2022-09-22T06:25:46.887Z,99329.56
2022-09-22T06:26:48.607Z,99331.22
2022-09-22T06:28:05.893Z,99327.41
2022-09-22T06:29:08.369Z,99334.50
2022-09-22T06:30:11.955Z,99327.09
2022-09-22T06:31:15.160Z,99327.94
2022-09-22T06:32:17.120Z,99324.13
2022-09-22T06:33:19.607Z,99327.41
2022-09-22T06:34:21.364Z,99326.41
2022-09-22T06:35:23.805Z,99330.69
2022-09-22T06:36:31.234Z,99324.47
2022-09-22T06:37:33.456Z,99326.09
2022-09-22T06:38:35.200Z,99322.31
2022-09-22T06:39:37.460Z,99327.88
2022-09-22T06:40:39.317Z,99327.72
2022-09-22T06:41:41.210Z,99328.41
2022-09-22T06:42:43.028Z,99330.84
2022-09-22T06:43:47.793Z,99334.97
2022-09-22T06:44:49.657Z,99330.38
2022-09-22T06:45:52.479Z,99324.75
2022-09-22T06:46:54.244Z,99328.06
2022-09-22T06:48:00.634Z,99332.16
2022-09-22T06:49:02.531Z,99327.72
2022-09-22T06:50:05.612Z,99328.38
2022-09-22T06:51:07.488Z,99329.00
2022-09-22T06:52:15.491Z,99336.44
2022-09-22T06:53:18.981Z,99329.34
2022-09-22T06:54:23.663Z,99336.09
2022-09-22T06:55:28.370Z,99335.72
2022-09-22T06:56:39.749Z,99327.66
2022-09-22T06:57:41.499Z,99332.59
2022-09-22T06:59:08.150Z,99334.25
2022-09-22T07:00:06.957Z,99338.19
2022-09-22T07:01:09.961Z,99339.81
2022-09-22T07:02:12.477Z,99333.41
2022-09-22T07:03:20.481Z,99339.16
2022-09-22T07:04:23.147Z,99339.63
2022-09-22T07:05:24.854Z,99335.00
2022-09-22T07:06:26.634Z,99337.13
2022-09-22T07:07:32.060Z,99343.88
2022-09-22T07:08:36.068Z,99334.16
2022-09-22T07:09:37.806Z,99334.63
2022-09-22T07:10:39.521Z,99340.56
2022-09-22T07:11:41.238Z,99342.03
2022-09-22T07:12:42.939Z,99330.50
2022-09-22T07:13:45.627Z,99332.78
2022-09-22T07:14:49.395Z,99336.06
2022-09-22T07:15:51.693Z,99340.31
2022-09-22T07:16:55.175Z,99336.38
2022-09-22T07:17:57.054Z,99335.84
2022-09-22T07:18:58.898Z,99334.53
2022-09-22T07:20:00.990Z,99341.25
2022-09-22T07:21:05.379Z,99339.44
2022-09-22T07:22:08.058Z,99334.63
2022-09-22T07:23:21.138Z,99337.75
2022-09-22T07:24:22.842Z,99331.31
2022-09-22T07:25:24.591Z,99338.88
2022-09-22T07:26:36.307Z,99334.06
2022-09-22T07:27:38.048Z,99322.69
2022-09-22T07:28:41.249Z,99325.00
2022-09-22T07:29:44.212Z,99327.28
2022-09-22T07:30:48.445Z,99321.00
2022-09-22T07:31:51.698Z,99327.09
2022-09-22T07:32:53.501Z,99325.91
2022-09-22T07:33:56.453Z,99326.59
2022-09-22T07:34:58.206Z,99327.22
2022-09-22T07:36:08.855Z,99330.50
2022-09-22T07:37:15.448Z,99325.69
2022-09-22T07:38:18.710Z,99328.31
2022-09-22T07:39:20.461Z,99331.44
2022-09-22T07:40:22.673Z,99323.38
2022-09-22T07:41:27.866Z,99328.13
2022-09-22T07:42:29.610Z,99327.13
2022-09-22T07:43:31.689Z,99326.75
2022-09-22T07:44:51.890Z,99328.44
2022-09-22T07:45:57.805Z,99333.81
2022-09-22T07:47:00.918Z,99325.72
2022-09-22T07:48:24.179Z,99331.47
2022-09-22T07:49:25.949Z,99328.28
2022-09-22T07:50:28.363Z,99318.53
2022-09-22T07:51:34.097Z,99322.66
2022-09-22T07:52:35.852Z,99317.03
2022-09-22T07:53:39.997Z,99327.41
2022-09-22T07:54:41.756Z,99323.59
2022-09-22T07:55:43.466Z,99326.69
2022-09-22T07:56:45.730Z,99320.38
2022-09-22T07:57:57.856Z,99320.50
2022-09-22T07:59:04.933Z,99321.16
2022-09-22T08:00:07.892Z,99325.25
2022-09-22T08:01:10.391Z,99329.00
2022-09-22T08:02:12.198Z,99327.81
2022-09-22T08:03:13.941Z,99323.16
2022-09-22T08:04:21.039Z,99323.47
2022-09-22T08:05:27.219Z,99329.19
2022-09-22T08:06:28.993Z,99317.63
2022-09-22T08:07:36.160Z,99312.00
2022-09-22T08:08:43.999Z,99313.25
2022-09-22T08:09:45.697Z,99305.97
2022-09-22T08:10:48.971Z,99312.56
2022-09-22T08:11:52.913Z,99310.34
2022-09-22T08:12:57.939Z,99310.97
2022-09-22T08:14:03.007Z,99311.25
2022-09-22T08:15:05.711Z,99311.09
2022-09-22T08:16:07.627Z,99309.88
2022-09-22T08:17:12.214Z,99311.34
2022-09-22T08:18:14.228Z,99311.78
2022-09-22T08:19:16.111Z,99310.63
2022-09-22T08:20:18.641Z,99307.59
2022-09-22T08:21:20.442Z,99310.72
2022-09-22T08:22:22.796Z,99306.91
2022-09-22T08:23:24.541Z,99311.81
2022-09-22T08:24:26.300Z,99305.53
2022-09-22T08:25:28.388Z,99305.97
2022-09-22T08:26:30.204Z,99308.06
2022-09-22T08:27:32.054Z,99302.59
2022-09-22T08:28:34.926Z,99303.84
2022-09-22T08:29:36.643Z,99305.31
2022-09-22T08:30:39.227Z,99308.59
2022-09-22T08:31:42.485Z,99310.50
2022-09-22T08:32:44.284Z,99301.53
2022-09-22T08:33:47.685Z,99305.63
2022-09-22T08:34:51.561Z,99300.81
2022-09-22T08:35:59.197Z,99302.69
2022-09-22T08:37:00.960Z,99302.34
2022-09-22T08:38:02.724Z,99303.97
2022-09-22T08:39:05.195Z,99296.47
2022-09-22T08:40:16.613Z,99298.53
2022-09-22T08:41:38.115Z,99300.25
2022-09-22T08:42:41.152Z,99303.72
2022-09-22T08:43:55.278Z,99303.19
2022-09-22T08:45:06.828Z,99297.31
2022-09-22T08:46:08.725Z,99304.84
2022-09-22T08:47:40.206Z,99300.03
2022-09-22T08:49:07.319Z,99296.41
2022-09-22T08:51:19.977Z,99294.47
2022-09-22T08:52:43.155Z,99293.09
2022-09-22T08:53:51.486Z,99297.38
2022-09-22T08:54:59.485Z,99297.38
2022-09-22T08:56:30.385Z,99290.50
2022-09-22T08:57:56.246Z,99297.69
2022-09-22T08:59:11.376Z,99301.97
2022-09-22T09:00:20.667Z,99304.22
2022-09-22T09:02:08.453Z,99301.66
2022-09-22T09:03:49.674Z,99300.03
2022-09-22T09:05:30.933Z,99301.31
2022-09-22T09:06:48.578Z,99295.63
2022-09-22T09:08:28.885Z,99304.81
2022-09-22T09:10:03.272Z,99298.75
2022-09-22T09:11:34.778Z,99298.97
2022-09-22T09:13:06.219Z,99295.31
2022-09-22T09:14:42.711Z,99292.31
2022-09-22T09:16:18.114Z,99290.72
2022-09-22T09:17:30.652Z,99294.00
2022-09-22T09:18:39.325Z,99295.44
2022-09-22T09:19:44.921Z,99288.09
2022-09-22T09:20:49.235Z,99291.81
2022-09-22T09:21:57.046Z,99288.97
2022-09-22T09:23:04.565Z,99292.84
2022-09-22T09:25:42.363Z,99290.47
2022-09-22T09:26:46.193Z,99289.00
2022-09-22T09:27:54.588Z,99291.69
2022-09-22T09:29:06.132Z,99291.31
2022-09-22T09:30:21.938Z,99294.03
2022-09-22T09:31:41.896Z,99288.72
2022-09-22T09:32:48.674Z,99288.56
2022-09-22T09:34:15.593Z,99293.66
2022-09-22T09:35:39.714Z,99293.88
2022-09-22T09:36:57.455Z,99296.13
2022-09-22T09:38:01.162Z,99286.34
2022-09-22T09:39:29.233Z,99288.63
2022-09-22T09:40:31.003Z,99284.31
2022-09-22T09:41:35.245Z,99283.50
2022-09-22T09:42:37.687Z,99289.25
2022-09-22T09:43:43.145Z,99285.16
2022-09-22T09:44:46.667Z,99286.22
2022-09-22T09:46:14.873Z,99282.31
2022-09-22T09:47:59.058Z,99279.28
2022-09-22T09:49:20.203Z,99280.72
2022-09-22T09:50:24.635Z,99278.06
2022-09-22T09:51:28.767Z,99273.59
2022-09-22T09:52:31.248Z,99281.16
2022-09-22T09:53:42.613Z,99262.69
2022-09-22T09:54:48.483Z,99279.41
2022-09-22T09:55:50.574Z,99275.69
2022-09-22T09:57:16.022Z,99274.47
2022-09-22T09:58:37.732Z,99274.56
2022-09-22T10:00:04.670Z,99271.88
2022-09-22T10:01:07.040Z,99273.44
2022-09-22T10:02:21.019Z,99270.22
2022-09-22T10:03:32.258Z,99270.91
2022-09-22T10:04:37.762Z,99268.28
2022-09-22T10:05:40.304Z,99269.00
2022-09-22T10:06:42.059Z,99262.81
2022-09-22T10:08:01.366Z,99263.69
2022-09-22T10:09:04.111Z,99260.41
2022-09-22T10:10:39.081Z,99269.41
2022-09-22T10:11:41.959Z,99256.78
2022-09-22T10:12:43.718Z,99261.00
2022-09-22T10:13:57.002Z,99256.53
2022-09-22T10:15:01.377Z,99258.16
2022-09-22T10:16:21.720Z,99255.84
2022-09-22T10:17:31.050Z,99256.66
2022-09-22T10:18:40.790Z,99255.06
2022-09-22T10:19:42.616Z,99246.13
2022-09-22T10:20:44.320Z,99253.03
2022-09-22T10:21:46.138Z,99256.72
2022-09-22T10:22:48.381Z,99248.06
2022-09-22T10:23:51.322Z,99248.47
2022-09-22T10:25:01.380Z,99247.09
2022-09-22T10:26:26.164Z,99240.28
2022-09-22T10:27:31.221Z,99234.94
2022-09-22T10:28:36.222Z,99235.81
2022-09-22T10:29:42.139Z,99231.88
2022-09-22T10:30:57.554Z,99237.09
2022-09-22T10:32:02.715Z,99226.91
2022-09-22T10:33:22.759Z,99233.50
2022-09-22T10:34:36.095Z,99233.50
2022-09-22T10:35:40.020Z,99231.06
2022-09-22T10:36:46.642Z,99231.94
2022-09-22T10:37:50.318Z,99222.81
2022-09-22T10:38:57.377Z,99224.72
2022-09-22T10:40:03.761Z,99222.59
2022-09-22T10:41:19.190Z,99225.00
2022-09-22T10:42:43.378Z,99215.34
2022-09-22T10:44:38.158Z,99214.28
2022-09-22T10:46:08.965Z,99215.59
2022-09-22T10:47:26.753Z,99209.66
2022-09-22T10:48:50.847Z,99215.03
2022-09-22T10:50:36.540Z,99205.59
2022-09-22T10:51:56.684Z,99205.28
2022-09-22T10:53:10.619Z,99215.03
2022-09-22T10:54:41.763Z,99205.56
2022-09-22T10:55:58.194Z,99203.38
2022-09-22T10:57:09.366Z,99204.19
2022-09-22T10:58:39.672Z,99208.75
2022-09-22T10:59:59.121Z,99203.06
2022-09-22T11:01:57.659Z,99202.22
2022-09-22T11:03:28.532Z,99206.03
2022-09-22T11:05:08.547Z,99201.69
2022-09-22T11:07:01.135Z,99204.69
2022-09-22T11:08:31.893Z,99202.03
2022-09-22T11:10:13.187Z,99194.19
2022-09-22T11:11:57.492Z,99193.41
2022-09-22T11:13:26.217Z,99194.75
2022-09-22T11:15:11.333Z,99190.97
2022-09-22T11:16:38.370Z,99187.78
2022-09-22T11:18:20.829Z,99195.06
2022-09-22T11:20:23.077Z,99186.72
2022-09-22T11:22:02.666Z,99197.25
2022-09-22T11:24:10.627Z,99187.03
2022-09-22T11:25:45.355Z,99184.56
2022-09-22T11:26:57.946Z,99182.69
2022-09-22T11:28:32.068Z,99175.13
2022-09-22T11:29:52.184Z,99168.94
2022-09-22T11:30:57.524Z,99169.22
2022-09-22T11:32:27.408Z,99175.13
2022-09-22T11:34:06.693Z,99169.97
2022-09-22T11:35:23.404Z,99169.94
2022-09-22T11:37:24.623Z,99160.22
2022-09-22T11:38:47.354Z,99160.47
2022-09-22T11:40:08.073Z,99158.56
2022-09-22T11:41:41.149Z,99159.34
2022-09-22T11:43:33.671Z,99159.03
2022-09-22T11:44:53.979Z,99156.78
2022-09-22T11:46:33.005Z,99155.41
2022-09-22T11:47:51.775Z,99162.63
2022-09-22T11:49:08.797Z,99149.69
2022-09-22T11:50:35.209Z,99150.72
2022-09-22T11:51:57.602Z,99143.38
2022-09-22T11:53:27.213Z,99142.25
2022-09-22T11:55:00.862Z,99135.50
2022-09-22T11:56:46.250Z,99147.78
2022-09-22T11:57:56.874Z,99143.13
2022-09-22T11:59:10.580Z,99139.03
2022-09-22T12:00:17.440Z,99142.50
2022-09-22T12:01:28.145Z,99138.44
2022-09-22T12:02:42.051Z,99139.22
2022-09-22T12:03:49.249Z,99136.19
2022-09-22T12:05:06.711Z,99131.31
2022-09-22T12:06:15.143Z,99129.66
2022-09-22T12:07:29.414Z,99137.94
2022-09-22T12:08:43.393Z,99134.13
2022-09-22T12:10:22.974Z,99130.31
2022-09-22T12:11:30.921Z,99131.88
2022-09-22T12:12:34.086Z,99128.88
2022-09-22T12:13:43.063Z,99125.91
2022-09-22T12:14:59.169Z,99135.28
2022-09-22T12:16:41.582Z,99136.56
2022-09-22T12:18:16.311Z,99127.41
2022-09-22T12:20:08.481Z,99126.31
2022-09-22T12:21:41.200Z,99135.69
2022-09-22T12:23:16.592Z,99133.50
2022-09-22T12:24:18.866Z,99117.81
2022-09-22T12:25:56.243Z,99124.03
2022-09-22T12:26:58.325Z,99117.78
2022-09-22T12:28:00.226Z,99127.16
2022-09-22T12:29:15.350Z,99123.94
2022-09-22T12:30:22.660Z,99121.47
2022-09-22T12:31:35.023Z,99114.22
2022-09-22T12:32:41.688Z,99118.78
2022-09-22T12:33:57.011Z,99118.78
2022-09-22T12:35:00.383Z,99119.28
2022-09-22T12:36:03.899Z,99120.34
2022-09-22T12:37:29.656Z,99107.50
2022-09-22T12:38:32.222Z,99108.53
2022-09-22T12:39:43.296Z,99112.81
2022-09-22T12:40:50.930Z,99111.19
2022-09-22T12:42:06.805Z,99111.19
2022-09-22T12:43:21.302Z,99105.50
2022-09-22T12:44:43.891Z,99107.38
2022-09-22T12:45:46.674Z,99108.13
2022-09-22T12:46:50.112Z,99103.81
2022-09-22T12:47:56.778Z,99105.69
2022-09-22T12:48:58.670Z,99103.81
2022-09-22T12:50:25.836Z,99109.75
2022-09-22T12:51:33.279Z,99102.53
2022-09-22T12:52:41.104Z,99103.88
2022-09-22T12:53:44.005Z,99100.41
2022-09-22T12:54:46.764Z,99105.75
2022-09-22T12:55:54.630Z,99108.44
2022-09-22T12:58:25.850Z,99098.53
2022-09-22T12:59:36.730Z,99104.13
2022-09-22T13:00:41.476Z,99099.50
2022-09-22T13:01:43.333Z,99095.44
2022-09-22T13:02:45.915Z,99093.59
2022-09-22T13:03:52.406Z,99089.84
2022-09-22T13:04:54.903Z,99098.69
2022-09-22T13:05:59.909Z,99089.59
2022-09-22T13:07:01.799Z,99099.03
2022-09-22T13:08:04.432Z,99090.41
2022-09-22T13:09:06.144Z,99089.34
2022-09-22T13:10:23.015Z,99091.28
2022-09-22T13:12:14.598Z,99094.53
2022-09-22T13:13:24.632Z,99090.72
2022-09-22T13:15:01.684Z,99093.41
2022-09-22T13:16:13.724Z,99089.03
2022-09-22T13:17:48.716Z,99093.81
2022-09-22T13:18:54.019Z,99088.41
2022-09-22T13:19:56.184Z,99088.41
2022-09-22T13:21:22.891Z,99080.34
2022-09-22T13:22:24.666Z,99081.94
2022-09-22T13:23:26.914Z,99082.66
2022-09-22T13:24:28.900Z,99081.84
2022-09-22T13:25:31.413Z,99081.03
2022-09-22T13:26:40.943Z,99072.19
2022-09-22T13:27:42.807Z,99081.28
2022-09-22T13:28:44.577Z,99080.50
2022-09-22T13:29:58.358Z,99079.97
2022-09-22T13:31:14.423Z,99083.47
2022-09-22T13:32:26.761Z,99080.22
2022-09-22T13:33:35.082Z,99082.91
2022-09-22T13:34:37.292Z,99073.97
2022-09-22T13:35:41.791Z,99072.13
2022-09-22T13:36:45.292Z,99072.13
2022-09-22T13:37:48.199Z,99073.50